Laredo, TX

8:58 AM CDT en Septiembre 02, 2014 (GMT -0500)
Laredo International | Change Station
CLOSE
Current Station
Aeropuerto
Location: Laredo,
Altura: 509 ft
Estaciones meteorológicas cercanas

Alt 509 ft 27.54 °N, 99.46 °W | Updated 1 hour ago

Clear
Despejado
80 ° F
Sensación térmica 80 ° F
N
8
Viento Variable Viento desde Este

Hoy
Alta -- | Baja -- ° F
--% Posibilidad de precipitaciones
Ayer
Alta -- | Baja -- ° F
Precip. -- pul
7:17 AM 7:57 PM
Cuarto creciente, 51% visible
Presión 29.90 pul
Visibilidad 10.0 Millas
Nubes Despejado
Punto de rocío 76 ° F
Humedad 88%
Precipitaciones 0.00 pul
Espesor de la nieve No disponible.
UV 0 de una escala de 12
Polen 10.10 de una escala de 12
PM2.5 Buena
Flu Activity No disponible.
METAR KLRD 021256Z 09007KT 10SM CLR 27/24 A2993 RMK AO2 T02660244 SLP123

More Conditions Fewer Conditions

Presión 29.90 pul
Visibilidad 10.0 Millas
Nubes Despejado
Punto de rocío 76 ° F
Humedad 88%
Precipitaciones 0.00 pul
Espesor de la nieve No disponible.
UV 0 de una escala de 12
Polen 10.10 de una escala de 12
PM2.5 Buena
Flu Activity No disponible.
METAR KLRD 021256Z 09007KT 10SM CLR 27/24 A2993 RMK AO2 T02660244 SLP123

More Conditions Fewer Conditions

10-Day Weather Forecast

Almanac

Astronomía

Sep. 02, 2014 Salida Puesta
Hora real 7:17 AM CDT 7:57 PM CDT
Crepúsculo civil 6:53 AM CDT 8:20 PM CDT
Crepúsculo náutico 6:25 AM CDT 8:48 PM CDT
Crepúsculo astronómico 5:57 AM CDT 9:17 PM CDT
Luna 2:26 PM CDT 12:36 AM CDT
Horas de luz 13h 27m
Horas de luz
12h 39m
Tomorrow will be 1m 35s shorter.
Cuarto creciente, 51% of the Moon is Illuminated
Hoy
Cuarto creciente
Sep 8
Luna llena
Sep 15
Cuarto menguante
Sep 24
Nueva
Oct 1
Cuarto creciente

Extremos de hoy

Máximos del estado Bajos del estado

Community

WunderPhotos

Upload Photos

1,749,656 ¡fotos cargadas!

Nearby

Calidad del aire

  Calidad del aire Índice AQ Contaminante
Ayer Buena
PM2.5
Ayer Buena
OZONE
Real Buena
PM2.5
Martes Buena
PM10
Martes Buena
OZONE
Miércoles Buena
PM10
Miércoles Buena
OZONE
Jueves Buena
PM10
Jueves Buena
OZONE

Grosos de nieve

Estación Profundido Altura
No tenemos constancia de nieve nueva.

Actividad de terremotos

Ciudad Distance Mag. Tiempo y dato
No hay informes recientes de la actividad sísmica.
Magnitud mínima muestra es 2,5.

Temperaturas de aguas costeras

Lugar Temperatura
Sin partes meteorológicos de las estaciones

Estaciones meteorológicas cercanas